sensor_id;sensor_type;location;lat;lon;timestamp;pressure;altitude;pressure_sealevel;temperature;humidity
44138;BME280;29800;55.942;37.314;2024-02-26T00:00:14;100475.59;;;0.04;58.18
44138;BME280;29800;55.942;37.314;2024-02-26T00:02:41;100476.25;;;-0.03;58.97
44138;BME280;29800;55.942;37.314;2024-02-26T00:05:08;100481.47;;;-0.01;58.87
44138;BME280;29800;55.942;37.314;2024-02-26T00:07:35;100475.41;;;-0.03;58.78
44138;BME280;29800;55.942;37.314;2024-02-26T00:10:01;100474.03;;;-0.07;58.89
44138;BME280;29800;55.942;37.314;2024-02-26T00:12:28;100472.53;;;-0.10;59.51
44138;BME280;29800;55.942;37.314;2024-02-26T00:14:54;100475.75;;;-0.06;59.40
44138;BME280;29800;55.942;37.314;2024-02-26T00:17:23;100473.72;;;-0.04;59.38
44138;BME280;29800;55.942;37.314;2024-02-26T00:19:50;100466.66;;;-0.05;59.39
44138;BME280;29800;55.942;37.314;2024-02-26T00:22:16;100474.41;;;-0.02;60.03
44138;BME280;29800;55.942;37.314;2024-02-26T00:24:44;100472.06;;;0.03;59.29
44138;BME280;29800;55.942;37.314;2024-02-26T00:27:13;100478.13;;;0.05;59.42
44138;BME280;29800;55.942;37.314;2024-02-26T00:29:39;100467.72;;;0.10;59.35
44138;BME280;29800;55.942;37.314;2024-02-26T00:32:05;100462.00;;;0.13;57.88
44138;BME280;29800;55.942;37.314;2024-02-26T00:34:32;100466.69;;;0.11;58.09
44138;BME280;29800;55.942;37.314;2024-02-26T00:36:59;100459.28;;;0.05;57.42
44138;BME280;29800;55.942;37.314;2024-02-26T00:39:25;100460.63;;;0.01;57.88
44138;BME280;29800;55.942;37.314;2024-02-26T00:41:51;100463.47;;;-0.01;57.82
44138;BME280;29800;55.942;37.314;2024-02-26T00:44:17;100451.53;;;0.02;58.07
44138;BME280;29800;55.942;37.314;2024-02-26T00:46:44;100451.22;;;0.05;58.37
44138;BME280;29800;55.942;37.314;2024-02-26T00:49:10;100454.25;;;0.10;56.73
44138;BME280;29800;55.942;37.314;2024-02-26T00:51:36;100445.16;;;0.11;57.24
44138;BME280;29800;55.942;37.314;2024-02-26T00:54:02;100449.53;;;0.12;56.85
44138;BME280;29800;55.942;37.314;2024-02-26T00:56:29;100443.81;;;0.07;56.86
44138;BME280;29800;55.942;37.314;2024-02-26T00:58:55;100444.97;;;0.05;56.82
44138;BME280;29800;55.942;37.314;2024-02-26T01:01:21;100449.19;;;0.07;56.76
44138;BME280;29800;55.942;37.314;2024-02-26T01:03:47;100445.16;;;0.11;57.29
44138;BME280;29800;55.942;37.314;2024-02-26T01:06:13;100447.53;;;0.14;57.02
44138;BME280;29800;55.942;37.314;2024-02-26T01:08:39;100438.94;;;0.19;56.30
44138;BME280;29800;55.942;37.314;2024-02-26T01:11:05;100437.97;;;0.20;56.94
44138;BME280;29800;55.942;37.314;2024-02-26T01:13:31;100439.13;;;0.17;56.24
44138;BME280;29800;55.942;37.314;2024-02-26T01:15:58;100446.19;;;0.18;56.40
44138;BME280;29800;55.942;37.314;2024-02-26T01:18:24;100437.09;;;0.20;55.25
44138;BME280;29800;55.942;37.314;2024-02-26T01:20:50;100448.03;;;0.18;56.22
44138;BME280;29800;55.942;37.314;2024-02-26T01:23:16;100446.53;;;0.15;56.55
44138;BME280;29800;55.942;37.314;2024-02-26T01:25:42;100438.78;;;0.21;55.53
44138;BME280;29800;55.942;37.314;2024-02-26T01:28:09;100451.75;;;0.25;55.45
44138;BME280;29800;55.942;37.314;2024-02-26T01:30:35;100443.84;;;0.24;55.92
44138;BME280;29800;55.942;37.314;2024-02-26T01:33:01;100445.16;;;0.20;54.96
44138;BME280;29800;55.942;37.314;2024-02-26T01:35:27;100432.06;;;0.16;55.06
44138;BME280;29800;55.942;37.314;2024-02-26T01:37:53;100444.81;;;0.14;55.03
44138;BME280;29800;55.942;37.314;2024-02-26T01:40:20;100446.03;;;0.12;55.44
44138;BME280;29800;55.942;37.314;2024-02-26T01:42:46;100450.91;;;0.16;55.00
44138;BME280;29800;55.942;37.314;2024-02-26T01:45:15;100444.50;;;0.17;55.35
44138;BME280;29800;55.942;37.314;2024-02-26T01:47:41;100441.13;;;0.15;54.98
44138;BME280;29800;55.942;37.314;2024-02-26T01:50:08;100437.78;;;0.13;55.02
44138;BME280;29800;55.942;37.314;2024-02-26T01:52:35;100434.06;;;0.14;55.48
44138;BME280;29800;55.942;37.314;2024-02-26T01:55:01;100438.28;;;0.17;54.76
44138;BME280;29800;55.942;37.314;2024-02-26T01:57:29;100437.78;;;0.13;54.71
44138;BME280;29800;55.942;37.314;2024-02-26T01:59:55;100431.38;;;0.14;54.31
44138;BME280;29800;55.942;37.314;2024-02-26T02:02:22;100433.72;;;0.09;54.34
44138;BME280;29800;55.942;37.314;2024-02-26T02:04:48;100424.66;;;0.10;54.69
44138;BME280;29800;55.942;37.314;2024-02-26T02:07:15;100433.72;;;0.09;54.71
44138;BME280;29800;55.942;37.314;2024-02-26T02:09:42;100430.19;;;0.09;54.70
44138;BME280;29800;55.942;37.314;2024-02-26T02:12:09;100425.97;;;0.06;54.74
44138;BME280;29800;55.942;37.314;2024-02-26T02:14:35;100425.81;;;0.08;53.76
44138;BME280;29800;55.942;37.314;2024-02-26T02:17:02;100425.47;;;0.03;54.80
44138;BME280;29800;55.942;37.314;2024-02-26T02:19:28;100422.59;;;0.04;54.87
44138;BME280;29800;55.942;37.314;2024-02-26T02:21:54;100421.94;;;0.10;54.92
44138;BME280;29800;55.942;37.314;2024-02-26T02:24:20;100424.97;;;0.15;54.72
44138;BME280;29800;55.942;37.314;2024-02-26T02:26:47;100432.06;;;0.16;54.33
44138;BME280;29800;55.942;37.314;2024-02-26T02:29:14;100429.19;;;0.18;54.11
44138;BME280;29800;55.942;37.314;2024-02-26T02:31:41;100429.00;;;0.20;53.63
44138;BME280;29800;55.942;37.314;2024-02-26T02:34:08;100423.28;;;0.14;53.56
44138;BME280;29800;55.942;37.314;2024-02-26T02:36:35;100424.66;;;0.10;54.53
44138;BME280;29800;55.942;37.314;2024-02-26T02:39:01;100424.31;;;0.13;54.19
44138;BME280;29800;55.942;37.314;2024-02-26T02:41:27;100422.47;;;0.14;54.69
44138;BME280;29800;55.942;37.314;2024-02-26T02:43:55;100418.25;;;0.20;53.35
44138;BME280;29800;55.942;37.314;2024-02-26T02:46:22;100418.59;;;0.16;53.18
44138;BME280;29800;55.942;37.314;2024-02-26T02:48:48;100422.63;;;0.12;53.73
44138;BME280;29800;55.942;37.314;2024-02-26T02:51:14;100423.97;;;0.08;53.89
44138;BME280;29800;55.942;37.314;2024-02-26T02:53:40;100417.72;;;0.08;53.44
44138;BME280;29800;55.942;37.314;2024-02-26T02:56:06;100416.06;;;0.07;54.12
44138;BME280;29800;55.942;37.314;2024-02-26T02:58:33;100411.19;;;0.10;53.69
44138;BME280;29800;55.942;37.314;2024-02-26T03:00:59;100414.53;;;0.12;53.84
44138;BME280;29800;55.942;37.314;2024-02-26T03:03:26;100417.25;;;0.12;54.38
44138;BME280;29800;55.942;37.314;2024-02-26T03:05:54;100409.81;;;0.06;53.16
44138;BME280;29800;55.942;37.314;2024-02-26T03:08:20;100408.16;;;0.05;54.27
44138;BME280;29800;55.942;37.314;2024-02-26T03:10:47;100410.13;;;0.03;54.09
44138;BME280;29800;55.942;37.314;2024-02-26T03:13:13;100412.16;;;0.01;53.56
44138;BME280;29800;55.942;37.314;2024-02-26T03:15:39;100407.63;;;0.02;53.48
44138;BME280;29800;55.942;37.314;2024-02-26T03:18:06;100403.41;;;-0.01;53.63
44138;BME280;29800;55.942;37.314;2024-02-26T03:20:32;100404.25;;;-0.01;53.23
44138;BME280;29800;55.942;37.314;2024-02-26T03:22:58;100392.81;;;-0.03;53.67
44138;BME280;29800;55.942;37.314;2024-02-26T03:25:25;100399.38;;;0.03;52.91
44138;BME280;29800;55.942;37.314;2024-02-26T03:27:51;100405.28;;;0.07;53.28
44138;BME280;29800;55.942;37.314;2024-02-26T03:30:17;100409.16;;;0.12;53.37
44138;BME280;29800;55.942;37.314;2024-02-26T03:32:43;100409.16;;;0.12;53.62
44138;BME280;29800;55.942;37.314;2024-02-26T03:35:09;100405.13;;;0.08;52.51
44138;BME280;29800;55.942;37.314;2024-02-26T03:37:36;100405.44;;;-0.03;53.07
44138;BME280;29800;55.942;37.314;2024-02-26T03:40:02;100408.63;;;-0.08;53.04
44138;BME280;29800;55.942;37.314;2024-02-26T03:42:29;100401.53;;;-0.09;53.58
44138;BME280;29800;55.942;37.314;2024-02-26T03:44:55;100404.56;;;-0.04;53.33
44138;BME280;29800;55.942;37.314;2024-02-26T03:47:21;100402.22;;;0.02;53.37
44138;BME280;29800;55.942;37.314;2024-02-26T03:49:48;100414.69;;;0.03;53.51
44138;BME280;29800;55.942;37.314;2024-02-26T03:52:14;100411.66;;;-0.03;52.89
44138;BME280;29800;55.942;37.314;2024-02-26T03:54:40;100396.47;;;-0.12;52.86
44138;BME280;29800;55.942;37.314;2024-02-26T03:57:06;100396.63;;;-0.22;53.30
44138;BME280;29800;55.942;37.314;2024-02-26T03:59:33;100400.34;;;-0.23;54.00
44138;BME280;29800;55.942;37.314;2024-02-26T04:01:59;100403.72;;;-0.12;52.89
44138;BME280;29800;55.942;37.314;2024-02-26T04:04:27;100395.31;;;-0.17;52.96
44138;BME280;29800;55.942;37.314;2024-02-26T04:06:53;100403.38;;;-0.17;53.73
44138;BME280;29800;55.942;37.314;2024-02-26T04:09:20;100404.38;;;-0.19;53.51
44138;BME280;29800;55.942;37.314;2024-02-26T04:11:46;100405.03;;;-0.16;53.34
44138;BME280;29800;55.942;37.314;2024-02-26T04:14:12;100398.31;;;-0.21;53.94
44138;BME280;29800;55.942;37.314;2024-02-26T04:16:38;100392.09;;;-0.21;53.44
44138;BME280;29800;55.942;37.314;2024-02-26T04:19:05;100397.31;;;-0.20;53.97
44138;BME280;29800;55.942;37.314;2024-02-26T04:21:33;100403.69;;;-0.21;53.98
44138;BME280;29800;55.942;37.314;2024-02-26T04:23:59;100394.78;;;-0.21;53.72
44138;BME280;29800;55.942;37.314;2024-02-26T04:26:28;100400.53;;;-0.16;53.12
44138;BME280;29800;55.942;37.314;2024-02-26T04:28:54;100403.19;;;-0.24;53.42
44138;BME280;29800;55.942;37.314;2024-02-26T04:31:21;100405.88;;;-0.24;54.70
44138;BME280;29800;55.942;37.314;2024-02-26T04:33:47;100415.47;;;-0.22;54.03
44138;BME280;29800;55.942;37.314;2024-02-26T04:36:16;100396.31;;;-0.19;53.07
44138;BME280;29800;55.942;37.314;2024-02-26T04:38:43;100404.53;;;-0.20;53.59
44138;BME280;29800;55.942;37.314;2024-02-26T04:41:09;100391.41;;;-0.23;53.40
44138;BME280;29800;55.942;37.314;2024-02-26T04:43:36;100394.97;;;-0.23;53.87
44138;BME280;29800;55.942;37.314;2024-02-26T04:46:08;100399.66;;;-0.16;53.33
44138;BME280;29800;55.942;37.314;2024-02-26T04:48:35;100405.91;;;-0.16;53.83
44138;BME280;29800;55.942;37.314;2024-02-26T04:51:01;100403.69;;;-0.21;53.84
44138;BME280;29800;55.942;37.314;2024-02-26T04:53:27;100398.66;;;-0.24;53.87
44138;BME280;29800;55.942;37.314;2024-02-26T04:55:53;100402.84;;;-0.29;53.95
44138;BME280;29800;55.942;37.314;2024-02-26T04:58:20;100406.38;;;-0.29;54.03
44138;BME280;29800;55.942;37.314;2024-02-26T05:00:46;100394.44;;;-0.26;53.92
44138;BME280;29800;55.942;37.314;2024-02-26T05:03:12;100392.75;;;-0.27;53.51
44138;BME280;29800;55.942;37.314;2024-02-26T05:05:44;100393.59;;;-0.27;54.43
44138;BME280;29800;55.942;37.314;2024-02-26T05:08:11;100395.59;;;-0.29;54.21
44138;BME280;29800;55.942;37.314;2024-02-26T05:10:38;100386.88;;;-0.23;53.42
44138;BME280;29800;55.942;37.314;2024-02-26T05:13:07;100399.16;;;-0.20;53.62
44138;BME280;29800;55.942;37.314;2024-02-26T05:15:33;100391.56;;;-0.25;54.08
44138;BME280;29800;55.942;37.314;2024-02-26T05:17:59;100391.25;;;-0.22;53.60
44138;BME280;29800;55.942;37.314;2024-02-26T05:20:26;100389.91;;;-0.26;53.98
44138;BME280;29800;55.942;37.314;2024-02-26T05:22:52;100385.88;;;-0.22;53.96
44138;BME280;29800;55.942;37.314;2024-02-26T05:25:18;100391.56;;;-0.25;54.11
44138;BME280;29800;55.942;37.314;2024-02-26T05:27:45;100387.88;;;-0.24;54.57
44138;BME280;29800;55.942;37.314;2024-02-26T05:30:11;100391.94;;;-0.20;54.07
44138;BME280;29800;55.942;37.314;2024-02-26T05:32:37;100396.63;;;-0.22;54.78
44138;BME280;29800;55.942;37.314;2024-02-26T05:35:04;100387.56;;;-0.21;54.31
44138;BME280;29800;55.942;37.314;2024-02-26T05:37:30;100390.41;;;-0.22;53.88
44138;BME280;29800;55.942;37.314;2024-02-26T05:39:57;100381.34;;;-0.21;54.40
44138;BME280;29800;55.942;37.314;2024-02-26T05:42:24;100380.81;;;-0.16;54.34
44138;BME280;29800;55.942;37.314;2024-02-26T05:44:50;100380.50;;;-0.13;54.02
44138;BME280;29800;55.942;37.314;2024-02-26T05:47:16;100400.38;;;-0.06;53.78
44138;BME280;29800;55.942;37.314;2024-02-26T05:49:43;100391.97;;;-0.11;54.48
44138;BME280;29800;55.942;37.314;2024-02-26T05:52:10;100394.28;;;-0.16;54.60
44138;BME280;29800;55.942;37.314;2024-02-26T05:54:36;100397.34;;;-0.11;55.01
44138;BME280;29800;55.942;37.314;2024-02-26T05:57:02;100386.06;;;-0.07;54.28
44138;BME280;29800;55.942;37.314;2024-02-26T05:59:28;100396.34;;;-0.02;54.28
44138;BME280;29800;55.942;37.314;2024-02-26T06:01:55;100394.34;;;0.00;54.27
44138;BME280;29800;55.942;37.314;2024-02-26T06:04:21;100397.72;;;0.02;54.05
44138;BME280;29800;55.942;37.314;2024-02-26T06:06:47;100393.66;;;0.06;54.23
44138;BME280;29800;55.942;37.314;2024-02-26T06:09:14;100415.22;;;0.14;54.50
44138;BME280;29800;55.942;37.314;2024-02-26T06:11:40;100407.47;;;0.11;54.24
44138;BME280;29800;55.942;37.314;2024-02-26T06:14:06;100410.69;;;0.07;54.67
44138;BME280;29800;55.942;37.314;2024-02-26T06:16:32;100404.94;;;0.10;54.92
44138;BME280;29800;55.942;37.314;2024-02-26T06:18:59;100415.38;;;0.13;53.81
44138;BME280;29800;55.942;37.314;2024-02-26T06:21:26;100407.81;;;0.08;54.75
44138;BME280;29800;55.942;37.314;2024-02-26T06:23:52;100413.38;;;0.07;54.03
44138;BME280;29800;55.942;37.314;2024-02-26T06:26:18;100412.50;;;0.06;54.97
44138;BME280;29800;55.942;37.314;2024-02-26T06:28:44;100404.09;;;0.09;54.84
44138;BME280;29800;55.942;37.314;2024-02-26T06:31:10;100407.28;;;0.13;54.50
44138;BME280;29800;55.942;37.314;2024-02-26T06:33:37;100405.13;;;0.08;55.15
44138;BME280;29800;55.942;37.314;2024-02-26T06:36:03;100398.72;;;0.09;55.08
44138;BME280;29800;55.942;37.314;2024-02-26T06:38:30;100411.19;;;0.18;55.01
44138;BME280;29800;55.942;37.314;2024-02-26T06:40:56;100411.53;;;0.24;54.81
44138;BME280;29800;55.942;37.314;2024-02-26T06:43:23;100399.78;;;0.25;54.39
44138;BME280;29800;55.942;37.314;2024-02-26T06:45:49;100396.88;;;0.18;54.43
44138;BME280;29800;55.942;37.314;2024-02-26T06:48:15;100396.69;;;0.11;54.12
44138;BME280;29800;55.942;37.314;2024-02-26T06:50:41;100402.44;;;0.00;54.51
44138;BME280;29800;55.942;37.314;2024-02-26T06:53:08;100400.06;;;-0.03;54.82
44138;BME280;29800;55.942;37.314;2024-02-26T06:55:34;100403.09;;;0.02;54.77
44138;BME280;29800;55.942;37.314;2024-02-26T06:58:00;100404.09;;;0.09;55.84
44138;BME280;29800;55.942;37.314;2024-02-26T07:00:26;100396.69;;;0.11;55.62
44138;BME280;29800;55.942;37.314;2024-02-26T07:02:53;100395.72;;;0.21;55.70
44138;BME280;29800;55.942;37.314;2024-02-26T07:05:19;100395.06;;;0.35;55.35
44138;BME280;29800;55.942;37.314;2024-02-26T07:07:45;100395.88;;;0.44;55.23
44138;BME280;29800;55.942;37.314;2024-02-26T07:10:12;100399.25;;;0.38;54.82
44138;BME280;29800;55.942;37.314;2024-02-26T07:12:38;100395.06;;;0.43;54.56
44138;BME280;29800;55.942;37.314;2024-02-26T07:15:05;100394.41;;;0.41;54.64
44138;BME280;29800;55.942;37.314;2024-02-26T07:17:34;100401.94;;;0.46;54.63
44138;BME280;29800;55.942;37.314;2024-02-26T07:20:00;100400.28;;;0.53;54.12
44138;BME280;29800;55.942;37.314;2024-02-26T07:22:26;100400.78;;;0.40;54.85
44138;BME280;29800;55.942;37.314;2024-02-26T07:24:52;100394.72;;;0.30;54.62
44138;BME280;29800;55.942;37.314;2024-02-26T07:27:18;100403.78;;;0.29;55.43
44138;BME280;29800;55.942;37.314;2024-02-26T07:29:47;100400.44;;;0.35;55.02
44138;BME280;29800;55.942;37.314;2024-02-26T07:32:13;100396.38;;;0.31;55.18
44138;BME280;29800;55.942;37.314;2024-02-26T07:34:40;100405.47;;;0.22;54.90
44138;BME280;29800;55.942;37.314;2024-02-26T07:37:08;100398.41;;;0.29;55.74
44138;BME280;29800;55.942;37.314;2024-02-26T07:39:34;100398.59;;;0.44;54.53
44138;BME280;29800;55.942;37.314;2024-02-26T07:42:00;100391.00;;;0.47;55.12
44138;BME280;29800;55.942;37.314;2024-02-26T07:44:27;100396.72;;;0.61;54.39
44138;BME280;29800;55.942;37.314;2024-02-26T07:46:53;100385.09;;;0.60;54.62
44138;BME280;29800;55.942;37.314;2024-02-26T07:49:19;100390.66;;;0.59;54.29
44138;BME280;29800;55.942;37.314;2024-02-26T07:51:45;100400.59;;;0.58;54.28
44138;BME280;29800;55.942;37.314;2024-02-26T07:54:12;100390.00;;;0.57;53.94
44138;BME280;29800;55.942;37.314;2024-02-26T07:56:38;100385.63;;;0.55;54.47
44138;BME280;29800;55.942;37.314;2024-02-26T07:59:04;100392.38;;;0.51;54.28
44138;BME280;29800;55.942;37.314;2024-02-26T08:01:30;100384.63;;;0.57;54.84
44138;BME280;29800;55.942;37.314;2024-02-26T08:03:56;100389.34;;;0.63;54.87
44138;BME280;29800;55.942;37.314;2024-02-26T08:06:24;100389.16;;;0.72;54.79
44138;BME280;29800;55.942;37.314;2024-02-26T08:08:51;100391.34;;;0.77;54.67
44138;BME280;29800;55.942;37.314;2024-02-26T08:11:18;100381.88;;;0.81;54.32
44138;BME280;29800;55.942;37.314;2024-02-26T08:13:44;100392.00;;;0.87;54.03
44138;BME280;29800;55.942;37.314;2024-02-26T08:16:12;100381.53;;;0.93;54.42
44138;BME280;29800;55.942;37.314;2024-02-26T08:18:38;100385.03;;;1.01;54.41
44138;BME280;29800;55.942;37.314;2024-02-26T08:21:05;100381.50;;;1.09;54.24
44138;BME280;29800;55.942;37.314;2024-02-26T08:23:32;100379.78;;;1.16;53.14
44138;BME280;29800;55.942;37.314;2024-02-26T08:25:58;100379.94;;;1.23;53.58
44138;BME280;29800;55.942;37.314;2024-02-26T08:28:24;100388.00;;;1.31;53.08
44138;BME280;29800;55.942;37.314;2024-02-26T08:30:50;100377.03;;;1.33;53.12
44138;BME280;29800;55.942;37.314;2024-02-26T08:33:17;100382.78;;;1.38;53.23
44138;BME280;29800;55.942;37.314;2024-02-26T08:35:43;100377.84;;;1.41;53.45
44138;BME280;29800;55.942;37.314;2024-02-26T08:38:09;100371.91;;;1.54;53.31
44138;BME280;29800;55.942;37.314;2024-02-26T08:40:36;100368.44;;;1.69;53.38
44138;BME280;29800;55.942;37.314;2024-02-26T08:43:02;100369.09;;;1.79;52.79
44138;BME280;29800;55.942;37.314;2024-02-26T08:45:29;100359.78;;;1.81;52.42
44138;BME280;29800;55.942;37.314;2024-02-26T08:47:55;100360.06;;;1.87;52.83
44138;BME280;29800;55.942;37.314;2024-02-26T08:50:21;100355.66;;;1.94;51.38
44138;BME280;29800;55.942;37.314;2024-02-26T08:52:48;100355.31;;;1.97;51.52
44138;BME280;29800;55.942;37.314;2024-02-26T08:55:17;100359.00;;;1.96;51.22
44138;BME280;29800;55.942;37.314;2024-02-26T08:57:44;100362.91;;;1.93;51.51
44138;BME280;29800;55.942;37.314;2024-02-26T09:00:11;100356.84;;;1.91;52.21
44138;BME280;29800;55.942;37.314;2024-02-26T09:02:38;100357.25;;;2.03;52.06
44138;BME280;29800;55.942;37.314;2024-02-26T09:05:08;100351.44;;;2.14;52.02
44138;BME280;29800;55.942;37.314;2024-02-26T09:07:34;100354.09;;;2.23;51.70
44138;BME280;29800;55.942;37.314;2024-02-26T09:10:00;100354.56;;;2.26;51.26
44138;BME280;29800;55.942;37.314;2024-02-26T09:12:26;100351.06;;;2.41;51.03
44138;BME280;29800;55.942;37.314;2024-02-26T09:14:53;100359.13;;;2.49;50.80
44138;BME280;29800;55.942;37.314;2024-02-26T09:17:19;100358.28;;;2.48;51.52
44138;BME280;29800;55.942;37.314;2024-02-26T09:19:45;100352.06;;;2.48;50.35
44138;BME280;29800;55.942;37.314;2024-02-26T09:22:11;100359.41;;;2.54;51.23
44138;BME280;29800;55.942;37.314;2024-02-26T09:24:38;100371.38;;;2.60;50.53
44138;BME280;29800;55.942;37.314;2024-02-26T09:27:05;100360.94;;;2.71;51.59
44138;BME280;29800;55.942;37.314;2024-02-26T09:29:32;100359.78;;;2.89;51.24
44138;BME280;29800;55.942;37.314;2024-02-26T09:31:58;100361.25;;;3.06;49.84
44138;BME280;29800;55.942;37.314;2024-02-26T09:34:25;100374.50;;;3.01;50.23
44138;BME280;29800;55.942;37.314;2024-02-26T09:36:51;100367.44;;;3.00;50.06
44138;BME280;29800;55.942;37.314;2024-02-26T09:39:17;100361.44;;;2.90;50.34
44138;BME280;29800;55.942;37.314;2024-02-26T09:41:48;100360.13;;;2.86;50.27
44138;BME280;29800;55.942;37.314;2024-02-26T09:44:21;100362.03;;;3.00;50.10
44138;BME280;29800;55.942;37.314;2024-02-26T09:46:49;100359.22;;;3.08;50.37
44138;BME280;29800;55.942;37.314;2024-02-26T09:49:19;100358.56;;;3.21;50.21
44138;BME280;29800;55.942;37.314;2024-02-26T09:51:49;100367.06;;;3.33;50.38
44138;BME280;29800;55.942;37.314;2024-02-26T09:54:15;100356.59;;;3.30;48.92
44138;BME280;29800;55.942;37.314;2024-02-26T09:56:43;100351.03;;;3.17;49.70
44138;BME280;29800;55.942;37.314;2024-02-26T09:59:15;100350.06;;;3.09;49.29
44138;BME280;29800;55.942;37.314;2024-02-26T10:01:44;100345.19;;;2.90;49.50
44138;BME280;29800;55.942;37.314;2024-02-26T10:04:12;100362.66;;;2.87;49.53
44138;BME280;29800;55.942;37.314;2024-02-26T10:06:39;100349.78;;;2.74;48.98
44138;BME280;29800;55.942;37.314;2024-02-26T10:09:09;100344.91;;;2.70;50.09
44138;BME280;29800;55.942;37.314;2024-02-26T10:11:37;100355.19;;;2.74;50.74
44138;BME280;29800;55.942;37.314;2024-02-26T10:14:04;100349.69;;;2.83;49.87
44138;BME280;29800;55.942;37.314;2024-02-26T10:16:30;100347.34;;;2.94;50.26
44138;BME280;29800;55.942;37.314;2024-02-26T10:18:56;100340.38;;;3.00;49.17
44138;BME280;29800;55.942;37.314;2024-02-26T10:21:23;100362.03;;;3.00;49.36
44138;BME280;29800;55.942;37.314;2024-02-26T10:23:49;100348.94;;;2.89;50.03
44138;BME280;29800;55.942;37.314;2024-02-26T10:26:19;100345.19;;;2.90;50.05
44138;BME280;29800;55.942;37.314;2024-02-26T10:28:46;100338.50;;;3.01;50.33
44138;BME280;29800;55.942;37.314;2024-02-26T10:31:13;100340.28;;;3.08;49.60
44138;BME280;29800;55.942;37.314;2024-02-26T10:33:41;100331.03;;;3.18;50.11
44138;BME280;29800;55.942;37.314;2024-02-26T10:36:08;100331.97;;;3.25;49.22
44138;BME280;29800;55.942;37.314;2024-02-26T10:38:36;100334.28;;;3.28;48.94
44138;BME280;29800;55.942;37.314;2024-02-26T10:41:04;100338.69;;;3.29;49.59
44138;BME280;29800;55.942;37.314;2024-02-26T10:43:31;100327.22;;;3.27;48.95
44138;BME280;29800;55.942;37.314;2024-02-26T10:45:57;100323.56;;;3.20;48.89
44138;BME280;29800;55.942;37.314;2024-02-26T10:48:24;100315.66;;;3.18;49.22
44138;BME280;29800;55.942;37.314;2024-02-26T10:50:50;100327.41;;;3.25;49.26
44138;BME280;29800;55.942;37.314;2024-02-26T10:53:20;100322.53;;;3.36;49.22
44138;BME280;29800;55.942;37.314;2024-02-26T10:56:00;100323.19;;;3.53;49.13
44138;BME280;29800;55.942;37.314;2024-02-26T10:58:27;100330.91;;;3.41;48.34
44138;BME280;29800;55.942;37.314;2024-02-26T11:00:59;100318.06;;;3.28;48.47
44138;BME280;29800;55.942;37.314;2024-02-26T11:03:31;100319.38;;;3.17;48.94
44138;BME280;29800;55.942;37.314;2024-02-26T11:06:22;100317.78;;;3.23;49.05
44138;BME280;29800;55.942;37.314;2024-02-26T11:08:49;100313.34;;;3.00;48.45
44138;BME280;29800;55.942;37.314;2024-02-26T11:11:17;100315.66;;;2.88;48.83
44138;BME280;29800;55.942;37.314;2024-02-26T11:13:47;100304.00;;;2.88;48.88
44138;BME280;29800;55.942;37.314;2024-02-26T11:16:18;100314.53;;;2.83;48.59
44138;BME280;29800;55.942;37.314;2024-02-26T11:18:46;100317.97;;;2.76;49.32
44138;BME280;29800;55.942;37.314;2024-02-26T11:21:17;100312.38;;;2.78;49.22
44138;BME280;29800;55.942;37.314;2024-02-26T11:23:53;100306.16;;;2.78;48.88
44138;BME280;29800;55.942;37.314;2024-02-26T11:26:21;100331.03;;;2.88;49.52
44138;BME280;29800;55.942;37.314;2024-02-26T11:28:50;100311.56;;;2.92;49.42
44138;BME280;29800;55.942;37.314;2024-02-26T11:31:17;100324.25;;;2.92;49.11
44138;BME280;29800;55.942;37.314;2024-02-26T11:33:51;100311.38;;;2.94;49.73
44138;BME280;29800;55.942;37.314;2024-02-26T11:36:19;100308.13;;;2.99;50.04
44138;BME280;29800;55.942;37.314;2024-02-26T11:38:46;100304.28;;;3.08;50.07
44138;BME280;29800;55.942;37.314;2024-02-26T11:41:17;100310.03;;;3.20;49.17
44138;BME280;29800;55.942;37.314;2024-02-26T11:43:57;100300.06;;;3.20;49.68
44138;BME280;29800;55.942;37.314;2024-02-26T11:46:29;100317.06;;;3.14;49.49
44138;BME280;29800;55.942;37.314;2024-02-26T11:49:02;100306.41;;;3.12;49.56
44138;BME280;29800;55.942;37.314;2024-02-26T11:51:33;100311.19;;;3.10;49.87
44138;BME280;29800;55.942;37.314;2024-02-26T11:54:00;100308.84;;;3.07;49.28
44138;BME280;29800;55.942;37.314;2024-02-26T11:56:26;100312.47;;;3.00;49.59
44138;BME280;29800;55.942;37.314;2024-02-26T11:58:56;100306.69;;;2.88;49.02
44138;BME280;29800;55.942;37.314;2024-02-26T12:01:42;100302.97;;;2.89;50.04
44138;BME280;29800;55.942;37.314;2024-02-26T12:15:43;100295.59;;;2.83;51.23
44138;BME280;29800;55.942;37.314;2024-02-26T12:18:15;100294.28;;;2.79;50.53
44138;BME280;29800;55.942;37.314;2024-02-26T12:20:43;100290.28;;;2.74;51.25
44138;BME280;29800;55.942;37.314;2024-02-26T12:23:16;100282.72;;;2.85;50.39
44138;BME280;29800;55.942;37.314;2024-02-26T12:25:45;100300.00;;;2.84;50.16
44138;BME280;29800;55.942;37.314;2024-02-26T12:28:14;100299.13;;;2.83;50.86
44138;BME280;29800;55.942;37.314;2024-02-26T12:30:41;100287.59;;;2.89;50.54
44138;BME280;29800;55.942;37.314;2024-02-26T12:33:07;100292.81;;;2.91;50.23
44138;BME280;29800;55.942;37.314;2024-02-26T12:35:35;100291.03;;;2.83;50.93
44138;BME280;29800;55.942;37.314;2024-02-26T12:38:01;100294.28;;;2.79;50.43
44138;BME280;29800;55.942;37.314;2024-02-26T12:40:31;100291.31;;;2.73;51.36
44138;BME280;29800;55.942;37.314;2024-02-26T12:42:58;100288.31;;;2.68;50.96
44138;BME280;29800;55.942;37.314;2024-02-26T12:45:25;100284.78;;;2.68;51.14
44138;BME280;29800;55.942;37.314;2024-02-26T12:47:52;100299.88;;;2.62;50.99
44138;BME280;29800;55.942;37.314;2024-02-26T12:50:18;100284.50;;;2.63;50.75
44138;BME280;29800;55.942;37.314;2024-02-26T12:52:46;100288.03;;;2.63;50.84
44138;BME280;29800;55.942;37.314;2024-02-26T12:55:15;100288.88;;;2.64;52.19
44138;BME280;29800;55.942;37.314;2024-02-26T12:57:45;100280.84;;;2.70;51.46